createdAt,value
2018-09-06T00:00:44.433Z,24.20
2018-09-06T00:03:16.486Z,23.20
2018-09-06T00:05:48.545Z,21.53
2018-09-06T00:08:20.669Z,24.70
2018-09-06T00:10:52.741Z,24.47
2018-09-06T00:13:24.768Z,22.20
2018-09-06T00:15:56.851Z,22.80
2018-09-06T00:18:28.893Z,23.47
2018-09-06T00:21:00.933Z,24.07
2018-09-06T00:23:33.113Z,23.80
2018-09-06T00:26:05.189Z,22.73
2018-09-06T00:28:37.225Z,23.83
2018-09-06T00:31:09.288Z,23.07
2018-09-06T00:33:41.369Z,23.67
2018-09-06T00:36:13.457Z,22.20
2018-09-06T00:38:45.468Z,21.73
2018-09-06T00:41:17.526Z,23.20
2018-09-06T00:43:49.562Z,21.53
2018-09-06T00:46:21.572Z,23.80
2018-09-06T00:48:53.692Z,22.73
2018-09-06T00:51:25.819Z,22.67
2018-09-06T00:53:57.836Z,25.77
2018-09-06T00:56:29.950Z,25.50
2018-09-06T00:59:02.039Z,25.70
2018-09-06T01:01:34.103Z,24.87
2018-09-06T01:04:06.143Z,23.57
2018-09-06T01:06:38.237Z,24.20
2018-09-06T01:09:10.278Z,25.00
2018-09-06T01:11:42.281Z,23.20
2018-09-06T01:14:14.389Z,22.50
2018-09-06T01:16:46.382Z,21.90
2018-09-06T01:19:18.387Z,22.63
2018-09-06T01:21:50.392Z,22.23
2018-09-06T01:24:22.466Z,22.43
2018-09-06T01:26:54.476Z,23.17
2018-09-06T01:29:26.492Z,25.23
2018-09-06T01:31:58.727Z,23.40
2018-09-06T01:34:30.913Z,22.23
2018-09-06T01:37:07.758Z,24.30
2018-09-06T01:39:40.208Z,25.50
2018-09-06T01:42:12.225Z,23.70
2018-09-06T01:44:44.257Z,23.30
2018-09-06T01:47:16.323Z,25.67
2018-09-06T01:49:48.352Z,26.33
2018-09-06T01:52:20.379Z,26.83
2018-09-06T01:54:52.476Z,23.73
2018-09-06T01:57:24.468Z,25.50
2018-09-06T01:59:56.491Z,25.07
2018-09-06T02:02:29.582Z,25.00
2018-09-06T02:05:01.583Z,22.03
2018-09-06T02:07:33.655Z,25.17
2018-09-06T02:10:05.662Z,23.53
2018-09-06T02:12:37.664Z,23.13
2018-09-06T02:15:09.713Z,21.60
2018-09-06T02:17:41.722Z,22.03
2018-09-06T02:20:13.748Z,22.03
2018-09-06T02:22:45.799Z,22.43
2018-09-06T02:25:17.897Z,20.13
2018-09-06T02:27:49.940Z,22.83
2018-09-06T02:30:21.994Z,23.17
2018-09-06T02:32:53.994Z,22.80
2018-09-06T02:35:26.031Z,21.27
2018-09-06T02:37:58.083Z,23.13
2018-09-06T02:40:35.897Z,22.40
2018-09-06T02:43:09.971Z,21.87
2018-09-06T02:45:43.220Z,22.97
2018-09-06T02:48:15.237Z,22.37
2018-09-06T02:50:52.750Z,21.90
2018-09-06T02:53:28.670Z,23.37
2018-09-06T02:56:00.638Z,22.23
2018-09-06T02:58:32.743Z,23.70
2018-09-06T03:01:04.924Z,23.30
2018-09-06T03:03:36.961Z,24.33
2018-09-06T03:06:09.097Z,23.77
2018-09-06T03:08:41.296Z,22.60
2018-09-06T03:11:15.642Z,22.93
2018-09-06T03:13:47.639Z,23.50
2018-09-06T03:16:19.753Z,23.00
2018-09-06T03:18:51.777Z,22.30
2018-09-06T03:21:23.750Z,21.53
2018-09-06T03:23:55.716Z,20.30
2018-09-06T03:26:27.776Z,23.57
2018-09-06T03:28:59.761Z,20.83
2018-09-06T03:31:31.828Z,21.50
2018-09-06T03:34:03.899Z,21.93
2018-09-06T03:36:35.972Z,23.27
2018-09-06T03:39:08.371Z,24.50
2018-09-06T03:41:40.457Z,22.00
2018-09-06T03:44:12.500Z,20.10
2018-09-06T03:46:44.588Z,22.70
2018-09-06T03:49:16.644Z,20.20
2018-09-06T03:51:48.662Z,20.27
2018-09-06T03:54:20.728Z,21.40
2018-09-06T03:56:52.714Z,22.83
2018-09-06T03:59:24.719Z,21.10
2018-09-06T04:01:56.831Z,21.10
2018-09-06T04:04:28.835Z,22.30
2018-09-06T04:07:00.937Z,23.57
2018-09-06T04:09:33.031Z,23.70
2018-09-06T04:12:05.058Z,22.83
2018-09-06T04:14:37.059Z,23.63
2018-09-06T04:17:09.079Z,23.07
2018-09-06T04:19:41.126Z,23.23
2018-09-06T04:22:13.161Z,23.23
2018-09-06T04:24:45.181Z,24.97
2018-09-06T04:27:17.176Z,22.23
2018-09-06T04:29:49.202Z,22.83
2018-09-06T04:32:21.190Z,22.67
2018-09-06T04:34:53.207Z,23.70
2018-09-06T04:37:25.218Z,23.40
2018-09-06T04:39:57.208Z,22.33
2018-09-06T04:42:29.300Z,23.70
2018-09-06T04:45:01.357Z,23.33
2018-09-06T04:47:33.363Z,23.60
2018-09-06T04:50:05.416Z,22.30
2018-09-06T04:52:37.423Z,21.57
2018-09-06T04:55:09.458Z,21.80
2018-09-06T04:57:41.465Z,22.03
2018-09-06T05:00:13.499Z,21.70
2018-09-06T05:02:45.531Z,21.50
2018-09-06T05:05:17.581Z,22.20
2018-09-06T05:07:49.607Z,19.57
2018-09-06T05:10:21.614Z,23.30
2018-09-06T05:12:53.633Z,19.40
2018-09-06T05:15:25.699Z,20.50
2018-09-06T05:17:57.809Z,20.57
2018-09-06T05:20:29.894Z,21.10
2018-09-06T05:23:02.661Z,22.10
2018-09-06T05:25:34.996Z,20.33
2018-09-06T05:28:07.010Z,23.00
2018-09-06T05:30:39.096Z,23.13
2018-09-06T05:33:11.034Z,23.10
2018-09-06T05:35:43.162Z,24.67
2018-09-06T05:38:15.205Z,21.60
2018-09-06T05:40:47.264Z,22.57
2018-09-06T05:43:19.299Z,22.27
2018-09-06T05:45:51.310Z,22.20
2018-09-06T05:48:23.330Z,21.50
2018-09-06T05:50:55.331Z,21.17
2018-09-06T05:53:27.368Z,23.13
2018-09-06T05:55:59.406Z,22.17
2018-09-06T05:58:31.580Z,22.10
2018-09-06T06:01:03.668Z,23.13
2018-09-06T06:03:35.634Z,21.93
2018-09-06T06:06:07.760Z,21.93
2018-09-06T06:08:41.836Z,22.57
2018-09-06T06:11:13.878Z,23.07
2018-09-06T06:13:45.943Z,21.60
2018-09-06T06:16:18.034Z,21.97
2018-09-06T06:18:50.108Z,21.07
2018-09-06T06:21:22.125Z,20.97
2018-09-06T06:23:54.086Z,21.57
2018-09-06T06:26:26.132Z,19.50
2018-09-06T06:28:58.103Z,18.60
2018-09-06T06:31:30.098Z,17.27
2018-09-06T06:34:02.126Z,17.20
2018-09-06T06:36:34.095Z,18.53
2018-09-06T06:39:08.245Z,17.10
2018-09-06T06:41:40.556Z,19.73
2018-09-06T06:44:12.522Z,18.03
2018-09-06T06:46:44.531Z,17.30
2018-09-06T06:49:16.500Z,17.60
2018-09-06T06:51:48.538Z,17.67
2018-09-06T06:54:20.547Z,18.87
2018-09-06T06:56:52.578Z,17.10
2018-09-06T06:59:24.910Z,16.40
2018-09-06T07:01:56.898Z,16.57
2018-09-06T07:04:28.916Z,17.30
2018-09-06T07:07:01.627Z,16.07
2018-09-06T07:09:33.607Z,16.27
2018-09-06T07:12:05.699Z,14.80
2018-09-06T07:14:37.754Z,15.20
2018-09-06T07:17:09.739Z,14.43
2018-09-06T07:19:41.758Z,14.73
2018-09-06T07:22:13.778Z,17.50
2018-09-06T07:24:45.776Z,27.43
2018-09-06T07:27:17.921Z,23.10
2018-09-06T07:29:49.903Z,16.40
2018-09-06T07:32:21.967Z,17.30
2018-09-06T07:34:54.012Z,17.50
2018-09-06T07:37:26.014Z,17.60
2018-09-06T07:39:58.085Z,18.60
2018-09-06T07:42:30.116Z,19.07
2018-09-06T07:45:02.471Z,18.57
2018-09-06T07:47:34.503Z,18.17
2018-09-06T07:50:06.555Z,17.73
2018-09-06T07:52:38.650Z,20.47
2018-09-06T07:55:10.671Z,17.87
2018-09-06T07:57:42.774Z,17.77
2018-09-06T08:00:14.802Z,17.10
2018-09-06T08:02:46.814Z,17.00
2018-09-06T08:05:18.902Z,17.60
2018-09-06T08:07:50.926Z,20.13
2018-09-06T08:10:22.983Z,18.77
2018-09-06T08:12:55.065Z,20.40
2018-09-06T08:15:27.093Z,20.50
2018-09-06T08:17:59.147Z,19.00
2018-09-06T08:20:31.222Z,20.70
2018-09-06T08:23:03.295Z,20.70
2018-09-06T08:25:35.312Z,21.63
2018-09-06T08:28:07.343Z,20.93
2018-09-06T08:30:39.454Z,21.20
2018-09-06T08:33:11.387Z,20.33
2018-09-06T08:35:43.422Z,21.07
2018-09-06T08:38:15.426Z,19.23
2018-09-06T08:40:47.432Z,18.87
2018-09-06T08:43:19.473Z,18.53
2018-09-06T08:45:51.511Z,17.63
2018-09-06T08:48:23.514Z,16.87
2018-09-06T08:50:55.542Z,16.50
2018-09-06T08:53:27.558Z,16.70
2018-09-06T08:55:59.538Z,15.70
2018-09-06T08:58:31.545Z,17.13
2018-09-06T09:01:09.182Z,17.37
2018-09-06T09:03:41.188Z,18.07
2018-09-06T09:06:13.252Z,17.23
2018-09-06T09:08:45.276Z,16.93
2018-09-06T09:11:17.384Z,18.10
2018-09-06T09:13:49.419Z,17.73
2018-09-06T09:16:21.398Z,18.60
2018-09-06T09:18:53.395Z,16.60
2018-09-06T09:21:25.554Z,17.77
2018-09-06T09:23:57.625Z,16.40
2018-09-06T09:26:29.655Z,16.90
2018-09-06T09:29:01.886Z,16.50
2018-09-06T09:31:33.913Z,15.50
2018-09-06T09:34:06.107Z,14.93
2018-09-06T09:36:38.128Z,15.77
2018-09-06T09:39:10.365Z,15.20
2018-09-06T09:41:42.387Z,14.30
2018-09-06T09:44:14.453Z,13.40
2018-09-06T09:49:18.027Z,12.90
2018-09-06T09:51:50.154Z,13.67
2018-09-06T09:54:22.221Z,12.70
2018-09-06T09:56:54.337Z,13.43
2018-09-06T09:59:26.337Z,13.00
2018-09-06T10:02:04.103Z,14.40
2018-09-06T10:04:39.342Z,12.33
2018-09-06T10:07:17.108Z,13.40
2018-09-06T10:09:49.272Z,13.00
2018-09-06T10:12:21.294Z,13.10
2018-09-06T10:14:53.280Z,12.77
2018-09-06T10:20:04.035Z,12.90
2018-09-06T10:22:36.166Z,12.47
2018-09-06T10:25:08.228Z,11.73
2018-09-06T10:27:40.345Z,12.23
2018-09-06T10:30:12.375Z,12.40
2018-09-06T10:32:44.435Z,12.43
2018-09-06T10:35:16.522Z,12.63
2018-09-06T10:37:48.560Z,12.10
2018-09-06T10:40:20.553Z,12.17
2018-09-06T10:42:52.554Z,12.30
2018-09-06T10:45:24.548Z,11.60
2018-09-06T10:47:56.600Z,12.43
2018-09-06T10:50:28.581Z,11.40
2018-09-06T10:53:00.642Z,12.03
2018-09-06T10:55:32.658Z,12.30
2018-09-06T10:58:04.710Z,11.07
2018-09-06T11:00:36.725Z,11.20
2018-09-06T11:03:08.823Z,11.73
2018-09-06T11:05:40.846Z,11.23
2018-09-06T11:08:12.963Z,12.17
2018-09-06T11:10:44.985Z,11.60
2018-09-06T11:13:17.161Z,11.23
2018-09-06T11:15:49.143Z,9.87
2018-09-06T11:18:21.128Z,11.07
2018-09-06T11:20:53.131Z,10.53
2018-09-06T11:23:25.221Z,9.57
2018-09-06T11:25:57.224Z,9.33
2018-09-06T11:28:29.254Z,9.03
2018-09-06T11:31:01.311Z,8.20
2018-09-06T11:33:33.339Z,9.80
2018-09-06T11:36:05.384Z,8.47
2018-09-06T11:38:37.415Z,7.97
2018-09-06T11:41:09.474Z,9.27
2018-09-06T11:43:41.533Z,9.10
2018-09-06T11:46:13.598Z,7.93
2018-09-06T11:48:45.626Z,7.90
2018-09-06T11:51:17.670Z,7.07
2018-09-06T11:53:49.700Z,7.87
2018-09-06T11:56:21.759Z,8.50
2018-09-06T11:58:53.991Z,7.93
2018-09-06T12:01:26.200Z,6.80
2018-09-06T12:03:58.279Z,7.50
2018-09-06T12:06:30.287Z,8.80
2018-09-06T12:09:02.452Z,6.80
2018-09-06T12:11:35.219Z,6.47
2018-09-06T12:14:07.254Z,6.70
2018-09-06T12:16:39.266Z,8.13
2018-09-06T12:19:11.306Z,7.50
2018-09-06T12:21:43.346Z,7.97
2018-09-06T12:24:15.413Z,7.03
2018-09-06T12:26:47.464Z,6.77
2018-09-06T12:29:19.484Z,7.00
2018-09-06T12:31:51.561Z,7.70
2018-09-06T12:34:23.575Z,6.73
2018-09-06T12:36:55.675Z,7.33
2018-09-06T12:39:27.696Z,7.60
2018-09-06T12:41:59.766Z,7.67
2018-09-06T12:44:31.843Z,6.70
2018-09-06T12:47:03.926Z,5.80
2018-09-06T12:49:36.026Z,6.43
2018-09-06T12:52:08.039Z,6.47
2018-09-06T12:54:40.141Z,6.70
2018-09-06T12:57:12.155Z,6.70
2018-09-06T12:59:44.220Z,6.90
2018-09-06T13:02:16.259Z,6.80
2018-09-06T13:04:48.468Z,6.37
2018-09-06T13:07:20.490Z,6.27
2018-09-06T13:09:52.532Z,6.80
2018-09-06T13:12:24.534Z,6.63
2018-09-06T13:15:03.303Z,6.57
2018-09-06T13:17:35.318Z,7.03
2018-09-06T13:20:07.402Z,6.40
2018-09-06T13:22:39.416Z,6.30
2018-09-06T13:25:11.443Z,6.60
2018-09-06T13:27:43.550Z,6.80
2018-09-06T13:30:15.562Z,6.93
2018-09-06T13:32:47.693Z,6.80
2018-09-06T13:35:19.721Z,6.90
2018-09-06T13:37:51.761Z,6.60
2018-09-06T13:40:23.771Z,6.10
2018-09-06T13:42:55.760Z,6.40
2018-09-06T13:45:27.771Z,5.90
2018-09-06T13:47:59.772Z,6.77
2018-09-06T13:50:31.804Z,6.43
2018-09-06T13:53:03.804Z,6.07
2018-09-06T13:55:35.803Z,6.43
2018-09-06T13:58:07.803Z,6.57
2018-09-06T14:00:39.802Z,6.93
2018-09-06T14:03:11.827Z,5.90
2018-09-06T14:05:43.876Z,6.10
2018-09-06T14:08:15.843Z,5.47
2018-09-06T14:10:47.918Z,6.70
2018-09-06T14:13:19.990Z,6.50
2018-09-06T14:15:51.990Z,5.77
2018-09-06T14:18:24.044Z,6.10
2018-09-06T14:20:56.120Z,6.20
2018-09-06T14:23:30.310Z,6.37
2018-09-06T14:26:03.750Z,6.50
2018-09-06T14:28:37.227Z,6.40
2018-09-06T14:31:09.360Z,7.40
2018-09-06T14:33:41.348Z,7.10
2018-09-06T14:36:13.363Z,6.53
2018-09-06T14:39:48.651Z,5.70
2018-09-06T14:42:20.660Z,6.43
2018-09-06T14:44:52.779Z,6.33
2018-09-06T14:47:24.786Z,7.10
2018-09-06T14:49:56.779Z,6.97
2018-09-06T14:52:28.819Z,6.83
2018-09-06T14:55:00.826Z,7.00
2018-09-06T14:57:32.829Z,7.03
2018-09-06T15:00:04.911Z,6.83
2018-09-06T15:02:36.979Z,6.97
2018-09-06T15:05:09.033Z,6.40
2018-09-06T15:07:41.031Z,7.13
2018-09-06T15:10:13.049Z,7.47
2018-09-06T15:12:45.051Z,7.10
2018-09-06T15:15:17.136Z,7.13
2018-09-06T15:17:49.181Z,7.10
2018-09-06T15:20:21.183Z,6.80
2018-09-06T15:22:53.184Z,6.70
2018-09-06T15:25:25.183Z,6.80
2018-09-06T15:27:57.238Z,7.50
2018-09-06T15:30:29.258Z,7.10
2018-09-06T15:33:01.324Z,6.63
2018-09-06T15:35:33.398Z,6.93
2018-09-06T15:38:06.001Z,7.10
2018-09-06T15:40:38.076Z,7.10
2018-09-06T15:43:12.051Z,6.90
2018-09-06T15:45:44.229Z,7.07
2018-09-06T15:48:16.418Z,7.80
2018-09-06T15:50:48.639Z,7.40
2018-09-06T15:53:20.811Z,6.73
2018-09-06T15:55:53.069Z,7.17
2018-09-06T15:58:32.027Z,6.57
2018-09-06T16:01:04.162Z,8.53
2018-09-06T16:03:36.337Z,7.03
2018-09-06T16:06:08.480Z,7.13
2018-09-06T16:08:40.631Z,7.63
2018-09-06T16:11:12.761Z,7.40
2018-09-06T16:13:45.045Z,7.60
2018-09-06T16:16:17.161Z,7.50
2018-09-06T16:18:49.901Z,7.40
2018-09-06T16:21:22.046Z,7.30
2018-09-06T16:23:54.147Z,7.13
2018-09-06T16:26:26.241Z,7.50
2018-09-06T16:28:58.422Z,8.13
2018-09-06T16:31:30.821Z,6.50
2018-09-06T16:34:03.014Z,7.63
2018-09-06T16:36:35.159Z,7.20
2018-09-06T16:39:08.474Z,7.53
2018-09-06T16:41:41.067Z,7.20
2018-09-06T16:44:14.256Z,7.40
2018-09-06T16:46:46.335Z,7.27
2018-09-06T16:49:18.448Z,7.90
2018-09-06T16:51:50.533Z,7.13
2018-09-06T16:54:22.728Z,7.73
2018-09-06T16:56:54.851Z,7.00
2018-09-06T16:59:26.978Z,7.93
2018-09-06T17:01:59.396Z,7.87
2018-09-06T17:04:31.573Z,7.50
2018-09-06T17:07:03.672Z,7.30
2018-09-06T17:09:35.749Z,7.70
2018-09-06T17:12:07.882Z,6.50
2018-09-06T17:14:40.213Z,8.50
2018-09-06T17:17:12.316Z,6.70
2018-09-06T17:19:44.411Z,7.30
2018-09-06T17:22:16.451Z,7.40
2018-09-06T17:24:48.507Z,6.90
2018-09-06T17:27:20.948Z,7.17
2018-09-06T17:29:53.133Z,6.97
2018-09-06T17:32:25.338Z,7.87
2018-09-06T17:34:57.371Z,7.17
2018-09-06T17:37:29.491Z,7.37
2018-09-06T17:40:01.638Z,8.60
2018-09-06T17:42:34.073Z,8.33
2018-09-06T17:45:06.205Z,8.40
2018-09-06T17:47:38.343Z,9.30
2018-09-06T17:50:10.506Z,8.17
2018-09-06T17:52:42.603Z,8.63
2018-09-06T17:55:14.676Z,7.97
2018-09-06T17:57:46.732Z,8.33
2018-09-06T18:00:18.843Z,10.10
2018-09-06T18:02:51.018Z,8.10
2018-09-06T18:05:23.136Z,9.43
2018-09-06T18:07:55.317Z,8.57
2018-09-06T18:10:27.409Z,9.97
2018-09-06T18:12:59.534Z,9.50
2018-09-06T18:15:31.614Z,8.60
2018-09-06T18:18:03.842Z,9.27
2018-09-06T18:20:36.020Z,8.20
2018-09-06T18:23:08.123Z,8.23
2018-09-06T18:25:40.209Z,8.60
2018-09-06T18:28:12.381Z,8.93
2018-09-06T18:30:44.439Z,8.00
2018-09-06T18:33:16.656Z,7.87
2018-09-06T18:35:48.922Z,8.60
2018-09-06T18:38:21.028Z,8.70
2018-09-06T18:40:53.134Z,9.27
2018-09-06T18:43:25.209Z,8.50
2018-09-06T18:45:57.345Z,8.80
2018-09-06T18:48:29.444Z,8.60
2018-09-06T18:51:01.603Z,9.37
2018-09-06T18:53:33.739Z,9.50
2018-09-06T18:56:05.917Z,10.37
2018-09-06T18:58:38.110Z,9.93
2018-09-06T19:01:10.262Z,10.40
2018-09-06T19:03:42.379Z,10.80
2018-09-06T19:06:14.508Z,10.17
2018-09-06T19:08:46.566Z,10.27
2018-09-06T19:11:19.052Z,10.60
2018-09-06T19:13:51.128Z,9.80
2018-09-06T19:16:23.344Z,10.87
2018-09-06T19:18:55.547Z,10.80
2018-09-06T19:21:27.897Z,9.80
2018-09-06T19:24:00.213Z,11.33
2018-09-06T19:26:32.333Z,11.73
2018-09-06T19:29:04.433Z,11.07
2018-09-06T19:31:36.545Z,11.87
2018-09-06T19:34:08.653Z,11.03
2018-09-06T19:36:40.802Z,12.10
2018-09-06T19:39:12.986Z,10.47
2018-09-06T19:41:45.120Z,10.90
2018-09-06T19:44:17.285Z,10.70
2018-09-06T19:46:49.469Z,11.13
2018-09-06T19:49:21.572Z,10.47
2018-09-06T19:51:53.656Z,10.83
2018-09-06T19:54:25.868Z,11.53
2018-09-06T19:56:57.933Z,11.70
2018-09-06T19:59:30.185Z,12.30
2018-09-06T20:02:02.446Z,11.67
2018-09-06T20:04:34.526Z,13.10
2018-09-06T20:07:06.677Z,10.80
2018-09-06T20:09:38.804Z,10.80
2018-09-06T20:12:10.922Z,12.13
2018-09-06T20:14:43.073Z,12.43
2018-09-06T20:17:15.197Z,11.37
2018-09-06T20:19:47.301Z,11.93
2018-09-06T20:22:19.438Z,11.27
2018-09-06T20:24:51.541Z,12.60
2018-09-06T20:27:24.423Z,12.17
2018-09-06T20:29:56.511Z,11.53
2018-09-06T20:32:28.576Z,11.87
2018-09-06T20:35:00.708Z,11.70
2018-09-06T20:37:32.775Z,10.93
2018-09-06T20:40:04.956Z,11.40
2018-09-06T20:42:37.127Z,11.87
2018-09-06T20:45:09.233Z,12.70
2018-09-06T20:47:41.396Z,12.83
2018-09-06T20:50:13.684Z,12.77
2018-09-06T20:52:45.811Z,13.17
2018-09-06T20:55:17.910Z,13.10
2018-09-06T20:57:50.061Z,12.03
2018-09-06T21:00:22.255Z,11.80
2018-09-06T21:02:55.443Z,12.80
2018-09-06T21:05:27.612Z,12.30
2018-09-06T21:07:59.815Z,13.63
2018-09-06T21:10:32.003Z,12.97
2018-09-06T21:13:04.115Z,12.60
2018-09-06T21:15:36.322Z,12.23
2018-09-06T21:18:08.761Z,12.13
2018-09-06T21:20:40.940Z,13.80
2018-09-06T21:23:13.142Z,12.30
2018-09-06T21:25:45.307Z,12.70
2018-09-06T21:28:17.414Z,12.07
2018-09-06T21:30:49.581Z,13.20
2018-09-06T21:33:21.676Z,14.00
2018-09-06T21:35:53.777Z,13.20
2018-09-06T21:38:26.464Z,12.50
2018-09-06T21:40:58.562Z,13.67
2018-09-06T21:43:31.345Z,13.70
2018-09-06T21:46:03.759Z,14.07
2018-09-06T21:48:35.821Z,13.83
2018-09-06T21:51:08.656Z,13.20
2018-09-06T21:53:40.756Z,13.60
2018-09-06T21:56:12.862Z,13.37
2018-09-06T21:58:44.911Z,13.53
2018-09-06T22:01:17.019Z,12.90
2018-09-06T22:03:54.740Z,12.27
2018-09-06T22:06:26.839Z,13.23
2018-09-06T22:08:58.932Z,13.93
2018-09-06T22:11:31.012Z,15.10
2018-09-06T22:14:03.104Z,13.83
2018-09-06T22:16:35.209Z,14.17
2018-09-06T22:19:07.758Z,14.87
2018-09-06T22:21:39.935Z,13.70
2018-09-06T22:24:12.011Z,14.93
2018-09-06T22:26:44.164Z,14.33
2018-09-06T22:29:16.288Z,13.90
2018-09-06T22:31:48.391Z,14.87
2018-09-06T22:34:20.596Z,15.37
2018-09-06T22:36:52.791Z,14.17
2018-09-06T22:39:24.874Z,14.50
2018-09-06T22:41:57.029Z,15.97
2018-09-06T22:44:29.121Z,12.97
2018-09-06T22:47:01.263Z,14.10
2018-09-06T22:49:33.397Z,14.00
2018-09-06T22:52:05.544Z,14.00
2018-09-06T22:54:37.578Z,12.47
2018-09-06T22:57:09.624Z,13.40
2018-09-06T22:59:41.656Z,14.37
2018-09-06T23:02:13.778Z,13.00
2018-09-06T23:04:45.825Z,13.00
2018-09-06T23:07:17.909Z,12.40
2018-09-06T23:09:49.962Z,13.00
2018-09-06T23:12:22.010Z,12.90
2018-09-06T23:14:54.051Z,13.27
2018-09-06T23:17:26.103Z,12.97
2018-09-06T23:19:58.231Z,12.63
2018-09-06T23:22:30.381Z,13.53
2018-09-06T23:25:02.428Z,12.37
2018-09-06T23:27:34.484Z,12.10
2018-09-06T23:30:06.824Z,11.57
2018-09-06T23:32:38.983Z,11.77
2018-09-06T23:35:11.079Z,11.40
2018-09-06T23:37:43.207Z,13.37
2018-09-06T23:40:15.288Z,11.07
2018-09-06T23:42:47.377Z,12.40
2018-09-06T23:45:19.537Z,12.20
2018-09-06T23:47:51.575Z,12.20
2018-09-06T23:50:23.633Z,11.60
2018-09-06T23:52:55.689Z,12.53
2018-09-06T23:55:27.739Z,11.90
2018-09-06T23:57:59.820Z,12.83
